sensor_id;sensor_type;location;lat;lon;timestamp;P1;durP1;ratioP1;P2;durP2;ratioP2
78895;SDS011;68284;59.124;37.910;2023-06-22T00:00:51;2.25;;;1.85;;
78895;SDS011;68284;59.124;37.910;2023-06-22T00:03:18;3.35;;;1.92;;
78895;SDS011;68284;59.124;37.910;2023-06-22T00:05:45;2.92;;;1.75;;
78895;SDS011;68284;59.124;37.910;2023-06-22T00:08:12;3.38;;;2.20;;
78895;SDS011;68284;59.124;37.910;2023-06-22T00:10:39;2.25;;;2.05;;
78895;SDS011;68284;59.124;37.910;2023-06-22T00:13:06;2.35;;;2.15;;
78895;SDS011;68284;59.124;37.910;2023-06-22T00:15:33;4.43;;;1.92;;
78895;SDS011;68284;59.124;37.910;2023-06-22T00:18:00;2.85;;;1.77;;
78895;SDS011;68284;59.124;37.910;2023-06-22T00:20:27;3.28;;;1.80;;
78895;SDS011;68284;59.124;37.910;2023-06-22T00:22:55;2.97;;;2.03;;
78895;SDS011;68284;59.124;37.910;2023-06-22T00:25:22;2.78;;;1.60;;
78895;SDS011;68284;59.124;37.910;2023-06-22T00:27:49;2.92;;;1.85;;
78895;SDS011;68284;59.124;37.910;2023-06-22T00:32:45;3.70;;;1.92;;
78895;SDS011;68284;59.124;37.910;2023-06-22T00:35:13;2.80;;;2.33;;
78895;SDS011;68284;59.124;37.910;2023-06-22T00:37:40;2.42;;;2.00;;
78895;SDS011;68284;59.124;37.910;2023-06-22T00:40:08;2.85;;;1.80;;
78895;SDS011;68284;59.124;37.910;2023-06-22T00:42:38;2.58;;;2.17;;
78895;SDS011;68284;59.124;37.910;2023-06-22T00:45:05;4.07;;;1.83;;
78895;SDS011;68284;59.124;37.910;2023-06-22T00:47:32;2.92;;;2.03;;
78895;SDS011;68284;59.124;37.910;2023-06-22T00:50:04;3.50;;;1.90;;
78895;SDS011;68284;59.124;37.910;2023-06-22T00:52:32;3.85;;;2.38;;
78895;SDS011;68284;59.124;37.910;2023-06-22T00:55:02;2.67;;;1.83;;
78895;SDS011;68284;59.124;37.910;2023-06-22T00:57:28;2.42;;;2.22;;
78895;SDS011;68284;59.124;37.910;2023-06-22T00:59:55;2.33;;;1.92;;
78895;SDS011;68284;59.124;37.910;2023-06-22T01:02:21;5.70;;;2.00;;
78895;SDS011;68284;59.124;37.910;2023-06-22T01:07:18;3.25;;;2.15;;
78895;SDS011;68284;59.124;37.910;2023-06-22T01:10:08;2.20;;;1.83;;
78895;SDS011;68284;59.124;37.910;2023-06-22T01:12:59;4.53;;;2.03;;
78895;SDS011;68284;59.124;37.910;2023-06-22T01:15:42;2.35;;;1.80;;
78895;SDS011;68284;59.124;37.910;2023-06-22T01:18:15;1.70;;;1.60;;
78895;SDS011;68284;59.124;37.910;2023-06-22T01:20:44;2.72;;;1.98;;
78895;SDS011;68284;59.124;37.910;2023-06-22T01:23:14;1.50;;;1.40;;
78895;SDS011;68284;59.124;37.910;2023-06-22T01:31:10;3.45;;;1.65;;
78895;SDS011;68284;59.124;37.910;2023-06-22T01:33:41;2.95;;;2.05;;
78895;SDS011;68284;59.124;37.910;2023-06-22T01:36:08;2.88;;;2.15;;
78895;SDS011;68284;59.124;37.910;2023-06-22T01:38:35;3.70;;;1.65;;
78895;SDS011;68284;59.124;37.910;2023-06-22T01:41:05;2.78;;;2.00;;
78895;SDS011;68284;59.124;37.910;2023-06-22T01:43:31;3.28;;;1.83;;
78895;SDS011;68284;59.124;37.910;2023-06-22T01:45:59;2.72;;;1.77;;
78895;SDS011;68284;59.124;37.910;2023-06-22T01:48:28;7.40;;;2.00;;
78895;SDS011;68284;59.124;37.910;2023-06-22T01:50:55;3.03;;;1.75;;
78895;SDS011;68284;59.124;37.910;2023-06-22T01:55:50;2.33;;;1.88;;
78895;SDS011;68284;59.124;37.910;2023-06-22T01:58:17;3.08;;;2.10;;
78895;SDS011;68284;59.124;37.910;2023-06-22T02:00:48;2.65;;;2.45;;
78895;SDS011;68284;59.124;37.910;2023-06-22T02:03:19;2.70;;;1.85;;
78895;SDS011;68284;59.124;37.910;2023-06-22T02:06:07;3.05;;;1.75;;
78895;SDS011;68284;59.124;37.910;2023-06-22T02:08:41;3.13;;;2.00;;
78895;SDS011;68284;59.124;37.910;2023-06-22T02:11:16;2.08;;;1.50;;
78895;SDS011;68284;59.124;37.910;2023-06-22T02:13:45;2.15;;;1.80;;
78895;SDS011;68284;59.124;37.910;2023-06-22T02:16:13;5.07;;;1.83;;
78895;SDS011;68284;59.124;37.910;2023-06-22T02:18:45;4.53;;;2.08;;
78895;SDS011;68284;59.124;37.910;2023-06-22T02:21:18;3.58;;;2.03;;
78895;SDS011;68284;59.124;37.910;2023-06-22T02:23:46;2.58;;;1.90;;
78895;SDS011;68284;59.124;37.910;2023-06-22T02:26:12;2.30;;;2.00;;
78895;SDS011;68284;59.124;37.910;2023-06-22T02:28:39;2.45;;;1.75;;
78895;SDS011;68284;59.124;37.910;2023-06-22T02:31:05;4.10;;;1.95;;
78895;SDS011;68284;59.124;37.910;2023-06-22T02:33:31;3.28;;;1.90;;
78895;SDS011;68284;59.124;37.910;2023-06-22T02:35:57;2.40;;;1.70;;
78895;SDS011;68284;59.124;37.910;2023-06-22T02:40:51;2.65;;;1.90;;
78895;SDS011;68284;59.124;37.910;2023-06-22T02:43:17;2.40;;;1.85;;
78895;SDS011;68284;59.124;37.910;2023-06-22T02:45:44;2.25;;;1.80;;
78895;SDS011;68284;59.124;37.910;2023-06-22T02:48:11;2.42;;;1.80;;
78895;SDS011;68284;59.124;37.910;2023-06-22T02:50:37;3.35;;;1.70;;
78895;SDS011;68284;59.124;37.910;2023-06-22T02:53:04;3.55;;;2.15;;
78895;SDS011;68284;59.124;37.910;2023-06-22T02:55:35;2.40;;;2.10;;
78895;SDS011;68284;59.124;37.910;2023-06-22T03:00:32;4.07;;;2.72;;
78895;SDS011;68284;59.124;37.910;2023-06-22T03:02:59;2.22;;;2.03;;
78895;SDS011;68284;59.124;37.910;2023-06-22T03:05:25;2.30;;;2.10;;
78895;SDS011;68284;59.124;37.910;2023-06-22T03:07:52;4.18;;;2.13;;
78895;SDS011;68284;59.124;37.910;2023-06-22T03:12:46;2.90;;;2.00;;
78895;SDS011;68284;59.124;37.910;2023-06-22T03:15:13;2.13;;;1.80;;
78895;SDS011;68284;59.124;37.910;2023-06-22T03:17:39;3.00;;;2.00;;
78895;SDS011;68284;59.124;37.910;2023-06-22T03:20:08;3.47;;;1.80;;
78895;SDS011;68284;59.124;37.910;2023-06-22T03:22:36;2.70;;;2.00;;
78895;SDS011;68284;59.124;37.910;2023-06-22T03:25:07;4.63;;;2.20;;
78895;SDS011;68284;59.124;37.910;2023-06-22T03:27:41;4.05;;;2.05;;
78895;SDS011;68284;59.124;37.910;2023-06-22T03:30:10;7.00;;;2.30;;
78895;SDS011;68284;59.124;37.910;2023-06-22T03:32:37;3.60;;;2.20;;
78895;SDS011;68284;59.124;37.910;2023-06-22T03:35:05;4.47;;;2.35;;
78895;SDS011;68284;59.124;37.910;2023-06-22T03:37:34;4.13;;;1.90;;
78895;SDS011;68284;59.124;37.910;2023-06-22T03:40:00;6.53;;;2.60;;
78895;SDS011;68284;59.124;37.910;2023-06-22T03:42:29;4.35;;;2.70;;
78895;SDS011;68284;59.124;37.910;2023-06-22T03:44:55;3.40;;;2.55;;
78895;SDS011;68284;59.124;37.910;2023-06-22T03:49:48;3.78;;;2.30;;
78895;SDS011;68284;59.124;37.910;2023-06-22T03:54:40;2.53;;;1.92;;
78895;SDS011;68284;59.124;37.910;2023-06-22T03:57:06;4.65;;;2.30;;
78895;SDS011;68284;59.124;37.910;2023-06-22T03:59:32;3.00;;;2.15;;
78895;SDS011;68284;59.124;37.910;2023-06-22T04:04:24;3.50;;;2.05;;
78895;SDS011;68284;59.124;37.910;2023-06-22T04:06:50;3.25;;;2.22;;
78895;SDS011;68284;59.124;37.910;2023-06-22T04:09:16;4.90;;;2.58;;
78895;SDS011;68284;59.124;37.910;2023-06-22T04:11:43;6.05;;;2.67;;
78895;SDS011;68284;59.124;37.910;2023-06-22T04:14:09;4.30;;;3.08;;
78895;SDS011;68284;59.124;37.910;2023-06-22T04:16:35;7.93;;;2.50;;
78895;SDS011;68284;59.124;37.910;2023-06-22T04:19:01;5.10;;;2.50;;
78895;SDS011;68284;59.124;37.910;2023-06-22T04:21:28;3.10;;;2.80;;
78895;SDS011;68284;59.124;37.910;2023-06-22T04:26:20;3.33;;;2.60;;
78895;SDS011;68284;59.124;37.910;2023-06-22T04:31:17;3.70;;;2.33;;
78895;SDS011;68284;59.124;37.910;2023-06-22T04:33:45;3.35;;;2.03;;
78895;SDS011;68284;59.124;37.910;2023-06-22T04:36:11;3.72;;;2.33;;
78895;SDS011;68284;59.124;37.910;2023-06-22T04:38:39;4.65;;;2.53;;
78895;SDS011;68284;59.124;37.910;2023-06-22T04:41:05;2.55;;;2.20;;
78895;SDS011;68284;59.124;37.910;2023-06-22T04:43:33;5.18;;;2.53;;
78895;SDS011;68284;59.124;37.910;2023-06-22T04:45:59;4.03;;;2.50;;
78895;SDS011;68284;59.124;37.910;2023-06-22T04:48:29;2.97;;;2.33;;
78895;SDS011;68284;59.124;37.910;2023-06-22T04:50:59;3.08;;;2.17;;
78895;SDS011;68284;59.124;37.910;2023-06-22T04:53:29;3.15;;;2.85;;
78895;SDS011;68284;59.124;37.910;2023-06-22T04:55:56;3.10;;;2.40;;
78895;SDS011;68284;59.124;37.910;2023-06-22T04:58:22;4.93;;;2.67;;
78895;SDS011;68284;59.124;37.910;2023-06-22T05:00:48;4.53;;;2.50;;
78895;SDS011;68284;59.124;37.910;2023-06-22T05:03:17;4.43;;;2.70;;
78895;SDS011;68284;59.124;37.910;2023-06-22T05:05:44;4.30;;;3.35;;
78895;SDS011;68284;59.124;37.910;2023-06-22T05:08:10;3.40;;;2.58;;
78895;SDS011;68284;59.124;37.910;2023-06-22T05:10:37;3.55;;;2.78;;
78895;SDS011;68284;59.124;37.910;2023-06-22T05:13:03;5.10;;;2.53;;
78895;SDS011;68284;59.124;37.910;2023-06-22T05:15:30;4.68;;;2.47;;
78895;SDS011;68284;59.124;37.910;2023-06-22T05:18:02;4.22;;;3.17;;
78895;SDS011;68284;59.124;37.910;2023-06-22T05:20:30;4.28;;;2.72;;
78895;SDS011;68284;59.124;37.910;2023-06-22T05:22:57;4.70;;;2.63;;
78895;SDS011;68284;59.124;37.910;2023-06-22T05:25:23;4.68;;;2.90;;
78895;SDS011;68284;59.124;37.910;2023-06-22T05:30:17;3.97;;;2.55;;
78895;SDS011;68284;59.124;37.910;2023-06-22T05:32:44;3.15;;;2.45;;
78895;SDS011;68284;59.124;37.910;2023-06-22T05:37:36;4.35;;;2.90;;
78895;SDS011;68284;59.124;37.910;2023-06-22T05:40:02;6.45;;;2.72;;
78895;SDS011;68284;59.124;37.910;2023-06-22T05:42:29;4.43;;;2.40;;
78895;SDS011;68284;59.124;37.910;2023-06-22T05:44:56;2.55;;;2.33;;
78895;SDS011;68284;59.124;37.910;2023-06-22T05:47:24;4.60;;;2.45;;
78895;SDS011;68284;59.124;37.910;2023-06-22T05:49:50;3.75;;;2.88;;
78895;SDS011;68284;59.124;37.910;2023-06-22T05:52:16;4.50;;;2.55;;
78895;SDS011;68284;59.124;37.910;2023-06-22T05:54:42;6.55;;;3.10;;
78895;SDS011;68284;59.124;37.910;2023-06-22T05:57:09;5.45;;;3.38;;
78895;SDS011;68284;59.124;37.910;2023-06-22T05:59:35;5.80;;;3.08;;
78895;SDS011;68284;59.124;37.910;2023-06-22T06:04:27;5.70;;;3.17;;
78895;SDS011;68284;59.124;37.910;2023-06-22T06:09:19;9.23;;;4.57;;
78895;SDS011;68284;59.124;37.910;2023-06-22T06:11:46;3.42;;;2.85;;
78895;SDS011;68284;59.124;37.910;2023-06-22T06:14:12;4.22;;;3.15;;
78895;SDS011;68284;59.124;37.910;2023-06-22T06:16:38;8.40;;;4.00;;
78895;SDS011;68284;59.124;37.910;2023-06-22T06:19:04;3.40;;;3.10;;
78895;SDS011;68284;59.124;37.910;2023-06-22T06:21:30;4.80;;;3.17;;
78895;SDS011;68284;59.124;37.910;2023-06-22T06:23:56;5.20;;;3.00;;
78895;SDS011;68284;59.124;37.910;2023-06-22T06:26:24;11.15;;;4.38;;
78895;SDS011;68284;59.124;37.910;2023-06-22T06:28:53;5.75;;;2.72;;
78895;SDS011;68284;59.124;37.910;2023-06-22T06:31:20;6.93;;;2.97;;
78895;SDS011;68284;59.124;37.910;2023-06-22T06:33:47;5.60;;;3.22;;
78895;SDS011;68284;59.124;37.910;2023-06-22T06:38:39;7.60;;;3.15;;
78895;SDS011;68284;59.124;37.910;2023-06-22T06:41:06;4.65;;;3.10;;
78895;SDS011;68284;59.124;37.910;2023-06-22T06:43:32;5.70;;;3.28;;
78895;SDS011;68284;59.124;37.910;2023-06-22T06:45:59;6.55;;;3.45;;
78895;SDS011;68284;59.124;37.910;2023-06-22T06:48:25;5.88;;;3.42;;
78895;SDS011;68284;59.124;37.910;2023-06-22T06:50:51;5.63;;;3.50;;
78895;SDS011;68284;59.124;37.910;2023-06-22T06:53:17;4.47;;;2.95;;
78895;SDS011;68284;59.124;37.910;2023-06-22T06:58:11;4.53;;;3.65;;
78895;SDS011;68284;59.124;37.910;2023-06-22T07:00:39;5.25;;;3.80;;
78895;SDS011;68284;59.124;37.910;2023-06-22T07:03:06;4.57;;;3.28;;
78895;SDS011;68284;59.124;37.910;2023-06-22T07:05:32;5.10;;;3.17;;
78895;SDS011;68284;59.124;37.910;2023-06-22T07:10:25;8.98;;;4.10;;
78895;SDS011;68284;59.124;37.910;2023-06-22T07:12:51;5.80;;;3.38;;
78895;SDS011;68284;59.124;37.910;2023-06-22T07:15:17;3.90;;;3.35;;
78895;SDS011;68284;59.124;37.910;2023-06-22T07:17:43;4.15;;;3.63;;
78895;SDS011;68284;59.124;37.910;2023-06-22T07:22:41;4.82;;;2.80;;
78895;SDS011;68284;59.124;37.910;2023-06-22T07:25:08;3.58;;;2.70;;
78895;SDS011;68284;59.124;37.910;2023-06-22T07:27:38;4.05;;;3.40;;
78895;SDS011;68284;59.124;37.910;2023-06-22T07:30:09;3.40;;;2.80;;
78895;SDS011;68284;59.124;37.910;2023-06-22T07:32:36;4.57;;;2.65;;
78895;SDS011;68284;59.124;37.910;2023-06-22T07:35:02;4.90;;;3.30;;
78895;SDS011;68284;59.124;37.910;2023-06-22T07:37:30;3.38;;;3.08;;
78895;SDS011;68284;59.124;37.910;2023-06-22T07:39:58;4.10;;;2.70;;
78895;SDS011;68284;59.124;37.910;2023-06-22T07:44:51;4.13;;;3.42;;
78895;SDS011;68284;59.124;37.910;2023-06-22T07:47:19;4.50;;;3.00;;
78895;SDS011;68284;59.124;37.910;2023-06-22T07:49:46;4.45;;;2.90;;
78895;SDS011;68284;59.124;37.910;2023-06-22T07:52:12;5.50;;;2.75;;
78895;SDS011;68284;59.124;37.910;2023-06-22T07:57:04;2.75;;;2.42;;
78895;SDS011;68284;59.124;37.910;2023-06-22T07:59:31;3.75;;;3.05;;
78895;SDS011;68284;59.124;37.910;2023-06-22T08:01:57;3.20;;;2.60;;
78895;SDS011;68284;59.124;37.910;2023-06-22T08:04:23;3.08;;;2.78;;
78895;SDS011;68284;59.124;37.910;2023-06-22T08:06:51;5.57;;;2.70;;
78895;SDS011;68284;59.124;37.910;2023-06-22T08:09:17;3.95;;;3.55;;
78895;SDS011;68284;59.124;37.910;2023-06-22T08:14:09;4.38;;;2.80;;
78895;SDS011;68284;59.124;37.910;2023-06-22T08:16:36;3.90;;;2.92;;
78895;SDS011;68284;59.124;37.910;2023-06-22T08:19:02;3.45;;;2.90;;
78895;SDS011;68284;59.124;37.910;2023-06-22T08:23:54;3.53;;;2.50;;
78895;SDS011;68284;59.124;37.910;2023-06-22T08:26:22;3.83;;;2.70;;
78895;SDS011;68284;59.124;37.910;2023-06-22T08:28:49;3.88;;;2.35;;
78895;SDS011;68284;59.124;37.910;2023-06-22T08:31:15;4.05;;;2.60;;
78895;SDS011;68284;59.124;37.910;2023-06-22T08:36:08;3.72;;;2.47;;
78895;SDS011;68284;59.124;37.910;2023-06-22T08:38:37;2.63;;;2.05;;
78895;SDS011;68284;59.124;37.910;2023-06-22T08:41:04;3.22;;;2.28;;
78895;SDS011;68284;59.124;37.910;2023-06-22T08:43:30;3.22;;;2.38;;
78895;SDS011;68284;59.124;37.910;2023-06-22T08:48:23;4.30;;;2.67;;
78895;SDS011;68284;59.124;37.910;2023-06-22T08:50:54;3.38;;;2.63;;
78895;SDS011;68284;59.124;37.910;2023-06-22T08:53:21;4.07;;;2.33;;
78895;SDS011;68284;59.124;37.910;2023-06-22T08:55:47;3.20;;;2.72;;
78895;SDS011;68284;59.124;37.910;2023-06-22T08:58:13;4.28;;;2.38;;
78895;SDS011;68284;59.124;37.910;2023-06-22T09:03:05;2.80;;;2.22;;
78895;SDS011;68284;59.124;37.910;2023-06-22T09:05:32;4.00;;;2.03;;
78895;SDS011;68284;59.124;37.910;2023-06-22T09:08:00;2.90;;;2.22;;
78895;SDS011;68284;59.124;37.910;2023-06-22T09:12:53;3.83;;;2.42;;
78895;SDS011;68284;59.124;37.910;2023-06-22T09:15:19;3.08;;;2.20;;
78895;SDS011;68284;59.124;37.910;2023-06-22T09:17:46;4.88;;;2.42;;
78895;SDS011;68284;59.124;37.910;2023-06-22T09:22:38;2.80;;;2.05;;
78895;SDS011;68284;59.124;37.910;2023-06-22T09:25:06;3.95;;;2.60;;
78895;SDS011;68284;59.124;37.910;2023-06-22T09:27:33;3.33;;;2.90;;
78895;SDS011;68284;59.124;37.910;2023-06-22T09:29:59;4.43;;;2.55;;
78895;SDS011;68284;59.124;37.910;2023-06-22T09:32:25;3.92;;;2.40;;
78895;SDS011;68284;59.124;37.910;2023-06-22T09:34:51;3.40;;;2.78;;
78895;SDS011;68284;59.124;37.910;2023-06-22T09:37:18;3.78;;;2.63;;
78895;SDS011;68284;59.124;37.910;2023-06-22T09:39:45;2.45;;;2.25;;
78895;SDS011;68284;59.124;37.910;2023-06-22T09:42:11;3.65;;;2.25;;
78895;SDS011;68284;59.124;37.910;2023-06-22T09:44:39;3.00;;;1.98;;
78895;SDS011;68284;59.124;37.910;2023-06-22T09:47:05;4.15;;;2.50;;
78895;SDS011;68284;59.124;37.910;2023-06-22T09:49:31;3.95;;;2.30;;
78895;SDS011;68284;59.124;37.910;2023-06-22T09:51:58;3.58;;;2.42;;
78895;SDS011;68284;59.124;37.910;2023-06-22T09:54:24;3.97;;;2.42;;
78895;SDS011;68284;59.124;37.910;2023-06-22T09:56:50;3.88;;;2.53;;
78895;SDS011;68284;59.124;37.910;2023-06-22T09:59:16;2.58;;;2.33;;
78895;SDS011;68284;59.124;37.910;2023-06-22T10:01:42;4.53;;;2.72;;
78895;SDS011;68284;59.124;37.910;2023-06-22T10:04:08;4.63;;;2.38;;
78895;SDS011;68284;59.124;37.910;2023-06-22T10:06:35;5.28;;;2.10;;
78895;SDS011;68284;59.124;37.910;2023-06-22T10:09:01;2.65;;;2.45;;
78895;SDS011;68284;59.124;37.910;2023-06-22T10:11:29;3.05;;;2.10;;
78895;SDS011;68284;59.124;37.910;2023-06-22T10:13:57;3.67;;;2.72;;
78895;SDS011;68284;59.124;37.910;2023-06-22T10:16:24;8.07;;;2.50;;
78895;SDS011;68284;59.124;37.910;2023-06-22T10:18:56;4.05;;;2.03;;
78895;SDS011;68284;59.124;37.910;2023-06-22T10:21:22;3.42;;;2.25;;
78895;SDS011;68284;59.124;37.910;2023-06-22T10:23:51;3.28;;;2.08;;
78895;SDS011;68284;59.124;37.910;2023-06-22T10:26:17;4.00;;;1.90;;
78895;SDS011;68284;59.124;37.910;2023-06-22T10:28:43;4.38;;;2.25;;
78895;SDS011;68284;59.124;37.910;2023-06-22T10:31:09;3.00;;;2.20;;
78895;SDS011;68284;59.124;37.910;2023-06-22T10:33:35;5.90;;;2.03;;
78895;SDS011;68284;59.124;37.910;2023-06-22T10:36:02;3.97;;;2.42;;
78895;SDS011;68284;59.124;37.910;2023-06-22T10:38:28;3.35;;;2.80;;
78895;SDS011;68284;59.124;37.910;2023-06-22T10:40:54;3.22;;;2.72;;
78895;SDS011;68284;59.124;37.910;2023-06-22T10:43:20;5.13;;;2.50;;
78895;SDS011;68284;59.124;37.910;2023-06-22T10:45:46;3.83;;;2.35;;
78895;SDS011;68284;59.124;37.910;2023-06-22T10:48:13;3.50;;;2.30;;
78895;SDS011;68284;59.124;37.910;2023-06-22T10:50:40;6.72;;;2.38;;
78895;SDS011;68284;59.124;37.910;2023-06-22T10:53:06;4.68;;;2.40;;
78895;SDS011;68284;59.124;37.910;2023-06-22T10:57:58;3.42;;;2.40;;
78895;SDS011;68284;59.124;37.910;2023-06-22T11:00:24;2.55;;;2.20;;
78895;SDS011;68284;59.124;37.910;2023-06-22T11:02:50;4.72;;;2.55;;
78895;SDS011;68284;59.124;37.910;2023-06-22T11:05:17;5.93;;;2.63;;
78895;SDS011;68284;59.124;37.910;2023-06-22T11:07:43;3.40;;;2.80;;
78895;SDS011;68284;59.124;37.910;2023-06-22T11:10:10;5.13;;;2.40;;
78895;SDS011;68284;59.124;37.910;2023-06-22T11:12:37;4.60;;;2.90;;
78895;SDS011;68284;59.124;37.910;2023-06-22T11:15:03;2.60;;;2.38;;
78895;SDS011;68284;59.124;37.910;2023-06-22T11:17:31;6.88;;;2.70;;
78895;SDS011;68284;59.124;37.910;2023-06-22T11:22:30;2.80;;;2.30;;
78895;SDS011;68284;59.124;37.910;2023-06-22T11:24:59;4.28;;;2.80;;
78895;SDS011;68284;59.124;37.910;2023-06-22T11:27:25;4.57;;;2.63;;
78895;SDS011;68284;59.124;37.910;2023-06-22T11:29:52;4.68;;;3.03;;
78895;SDS011;68284;59.124;37.910;2023-06-22T11:32:18;3.90;;;2.75;;
78895;SDS011;68284;59.124;37.910;2023-06-22T11:34:47;5.03;;;2.60;;
78895;SDS011;68284;59.124;37.910;2023-06-22T11:37:14;3.38;;;2.53;;
78895;SDS011;68284;59.124;37.910;2023-06-22T11:39:41;6.25;;;2.80;;
78895;SDS011;68284;59.124;37.910;2023-06-22T11:42:09;3.78;;;2.58;;
78895;SDS011;68284;59.124;37.910;2023-06-22T11:44:35;5.95;;;3.20;;
78895;SDS011;68284;59.124;37.910;2023-06-22T11:47:02;5.00;;;3.03;;
78895;SDS011;68284;59.124;37.910;2023-06-22T11:49:30;3.95;;;2.60;;
78895;SDS011;68284;59.124;37.910;2023-06-22T11:51:56;2.83;;;2.53;;
78895;SDS011;68284;59.124;37.910;2023-06-22T11:54:23;3.22;;;2.85;;
78895;SDS011;68284;59.124;37.910;2023-06-22T11:56:49;9.70;;;3.25;;
78895;SDS011;68284;59.124;37.910;2023-06-22T11:59:15;7.97;;;3.75;;
78895;SDS011;68284;59.124;37.910;2023-06-22T12:01:41;9.15;;;3.33;;
78895;SDS011;68284;59.124;37.910;2023-06-22T12:04:08;8.05;;;3.55;;
78895;SDS011;68284;59.124;37.910;2023-06-22T12:06:37;11.73;;;2.90;;
78895;SDS011;68284;59.124;37.910;2023-06-22T12:09:07;6.25;;;3.42;;
78895;SDS011;68284;59.124;37.910;2023-06-22T12:11:33;5.25;;;2.72;;
78895;SDS011;68284;59.124;37.910;2023-06-22T12:13:59;4.18;;;2.70;;
78895;SDS011;68284;59.124;37.910;2023-06-22T12:16:30;8.95;;;2.80;;
78895;SDS011;68284;59.124;37.910;2023-06-22T12:18:57;4.60;;;2.75;;
78895;SDS011;68284;59.124;37.910;2023-06-22T12:21:23;3.78;;;2.30;;
78895;SDS011;68284;59.124;37.910;2023-06-22T12:23:49;3.42;;;2.58;;
78895;SDS011;68284;59.124;37.910;2023-06-22T12:26:15;3.20;;;2.20;;
78895;SDS011;68284;59.124;37.910;2023-06-22T12:28:42;5.05;;;2.67;;
78895;SDS011;68284;59.124;37.910;2023-06-22T12:31:08;2.88;;;2.58;;
78895;SDS011;68284;59.124;37.910;2023-06-22T12:33:35;9.98;;;3.22;;
78895;SDS011;68284;59.124;37.910;2023-06-22T12:36:01;4.57;;;2.88;;
78895;SDS011;68284;59.124;37.910;2023-06-22T12:38:27;4.38;;;2.40;;
78895;SDS011;68284;59.124;37.910;2023-06-22T12:40:53;4.13;;;2.97;;
78895;SDS011;68284;59.124;37.910;2023-06-22T12:43:19;5.55;;;2.95;;
78895;SDS011;68284;59.124;37.910;2023-06-22T12:45:45;4.20;;;2.70;;
78895;SDS011;68284;59.124;37.910;2023-06-22T12:48:12;7.00;;;3.85;;
78895;SDS011;68284;59.124;37.910;2023-06-22T12:50:38;3.15;;;2.65;;
78895;SDS011;68284;59.124;37.910;2023-06-22T12:53:04;6.38;;;3.03;;
78895;SDS011;68284;59.124;37.910;2023-06-22T12:55:31;6.78;;;2.72;;
78895;SDS011;68284;59.124;37.910;2023-06-22T12:57:58;4.90;;;3.05;;
78895;SDS011;68284;59.124;37.910;2023-06-22T13:00:26;4.45;;;2.80;;
78895;SDS011;68284;59.124;37.910;2023-06-22T13:02:55;5.60;;;3.17;;
78895;SDS011;68284;59.124;37.910;2023-06-22T13:05:21;9.05;;;3.47;;
78895;SDS011;68284;59.124;37.910;2023-06-22T13:07:49;6.75;;;3.17;;
78895;SDS011;68284;59.124;37.910;2023-06-22T13:10:19;5.78;;;3.17;;
78895;SDS011;68284;59.124;37.910;2023-06-22T13:12:48;6.47;;;2.95;;
78895;SDS011;68284;59.124;37.910;2023-06-22T13:15:14;5.68;;;2.70;;
78895;SDS011;68284;59.124;37.910;2023-06-22T13:17:41;5.53;;;2.83;;
78895;SDS011;68284;59.124;37.910;2023-06-22T13:20:09;4.97;;;2.75;;
78895;SDS011;68284;59.124;37.910;2023-06-22T13:22:36;5.88;;;2.95;;
78895;SDS011;68284;59.124;37.910;2023-06-22T13:25:06;5.72;;;2.75;;
78895;SDS011;68284;59.124;37.910;2023-06-22T13:27:32;3.38;;;2.55;;
78895;SDS011;68284;59.124;37.910;2023-06-22T13:29:58;6.32;;;2.80;;
78895;SDS011;68284;59.124;37.910;2023-06-22T13:32:25;4.93;;;2.90;;
78895;SDS011;68284;59.124;37.910;2023-06-22T13:34:52;7.32;;;3.15;;
78895;SDS011;68284;59.124;37.910;2023-06-22T13:37:19;9.40;;;3.13;;
78895;SDS011;68284;59.124;37.910;2023-06-22T13:39:45;7.65;;;3.10;;
78895;SDS011;68284;59.124;37.910;2023-06-22T13:42:11;4.72;;;2.90;;
78895;SDS011;68284;59.124;37.910;2023-06-22T13:44:38;9.98;;;2.70;;
78895;SDS011;68284;59.124;37.910;2023-06-22T13:47:04;11.05;;;3.00;;
78895;SDS011;68284;59.124;37.910;2023-06-22T13:49:33;3.97;;;2.50;;
78895;SDS011;68284;59.124;37.910;2023-06-22T13:51:59;3.17;;;2.50;;
78895;SDS011;68284;59.124;37.910;2023-06-22T13:54:27;8.10;;;3.55;;
78895;SDS011;68284;59.124;37.910;2023-06-22T13:56:53;11.45;;;2.75;;
78895;SDS011;68284;59.124;37.910;2023-06-22T13:59:19;3.30;;;2.45;;
78895;SDS011;68284;59.124;37.910;2023-06-22T14:01:46;10.75;;;3.13;;
78895;SDS011;68284;59.124;37.910;2023-06-22T14:04:12;8.27;;;2.45;;
78895;SDS011;68284;59.124;37.910;2023-06-22T14:06:38;5.95;;;2.83;;
78895;SDS011;68284;59.124;37.910;2023-06-22T14:09:04;2.95;;;2.42;;
78895;SDS011;68284;59.124;37.910;2023-06-22T14:11:31;5.55;;;2.78;;
78895;SDS011;68284;59.124;37.910;2023-06-22T14:13:57;5.75;;;2.72;;
78895;SDS011;68284;59.124;37.910;2023-06-22T14:16:23;6.35;;;2.80;;
78895;SDS011;68284;59.124;37.910;2023-06-22T14:18:51;6.03;;;2.38;;
78895;SDS011;68284;59.124;37.910;2023-06-22T14:21:17;5.47;;;2.55;;
78895;SDS011;68284;59.124;37.910;2023-06-22T14:23:44;7.88;;;2.30;;
78895;SDS011;68284;59.124;37.910;2023-06-22T14:26:17;11.43;;;2.95;;
78895;SDS011;68284;59.124;37.910;2023-06-22T14:28:47;9.57;;;2.58;;
78895;SDS011;68284;59.124;37.910;2023-06-22T14:31:16;8.55;;;2.42;;
78895;SDS011;68284;59.124;37.910;2023-06-22T14:33:44;3.60;;;2.42;;
78895;SDS011;68284;59.124;37.910;2023-06-22T14:36:11;3.42;;;2.47;;
78895;SDS011;68284;59.124;37.910;2023-06-22T14:38:38;3.28;;;2.60;;
78895;SDS011;68284;59.124;37.910;2023-06-22T14:41:04;7.53;;;2.72;;
78895;SDS011;68284;59.124;37.910;2023-06-22T14:43:32;5.78;;;2.60;;
78895;SDS011;68284;59.124;37.910;2023-06-22T14:46:00;7.63;;;2.80;;
78895;SDS011;68284;59.124;37.910;2023-06-22T14:48:26;11.77;;;2.97;;
78895;SDS011;68284;59.124;37.910;2023-06-22T14:50:53;5.30;;;2.83;;
78895;SDS011;68284;59.124;37.910;2023-06-22T14:53:19;3.65;;;2.13;;
78895;SDS011;68284;59.124;37.910;2023-06-22T14:55:46;10.43;;;2.90;;
78895;SDS011;68284;59.124;37.910;2023-06-22T14:58:12;6.53;;;3.22;;
78895;SDS011;68284;59.124;37.910;2023-06-22T15:00:38;5.28;;;2.75;;
78895;SDS011;68284;59.124;37.910;2023-06-22T15:03:04;4.55;;;2.47;;
78895;SDS011;68284;59.124;37.910;2023-06-22T15:05:32;7.05;;;2.70;;
78895;SDS011;68284;59.124;37.910;2023-06-22T15:07:58;4.82;;;3.15;;
78895;SDS011;68284;59.124;37.910;2023-06-22T15:10:24;6.55;;;3.33;;
78895;SDS011;68284;59.124;37.910;2023-06-22T15:12:51;5.50;;;2.75;;
78895;SDS011;68284;59.124;37.910;2023-06-22T15:15:17;5.40;;;3.03;;
78895;SDS011;68284;59.124;37.910;2023-06-22T15:17:44;11.10;;;2.90;;
78895;SDS011;68284;59.124;37.910;2023-06-22T15:20:10;6.95;;;3.33;;
78895;SDS011;68284;59.124;37.910;2023-06-22T15:22:36;9.27;;;3.45;;
78895;SDS011;68284;59.124;37.910;2023-06-22T15:25:03;5.35;;;2.65;;
78895;SDS011;68284;59.124;37.910;2023-06-22T15:27:30;4.18;;;2.35;;
78895;SDS011;68284;59.124;37.910;2023-06-22T15:29:56;5.78;;;2.72;;
78895;SDS011;68284;59.124;37.910;2023-06-22T15:32:22;6.43;;;2.67;;
78895;SDS011;68284;59.124;37.910;2023-06-22T15:34:49;5.90;;;2.25;;
78895;SDS011;68284;59.124;37.910;2023-06-22T15:37:19;3.00;;;2.78;;
78895;SDS011;68284;59.124;37.910;2023-06-22T15:39:45;2.33;;;2.13;;
78895;SDS011;68284;59.124;37.910;2023-06-22T15:42:12;7.32;;;3.00;;
78895;SDS011;68284;59.124;37.910;2023-06-22T15:44:39;3.92;;;2.45;;
78895;SDS011;68284;59.124;37.910;2023-06-22T15:47:05;3.70;;;2.42;;
78895;SDS011;68284;59.124;37.910;2023-06-22T15:49:31;5.53;;;2.50;;
78895;SDS011;68284;59.124;37.910;2023-06-22T15:51:57;12.30;;;2.92;;